Sacramento, California
Traffic Map
Current Weather Conditions
Sacramento, California
Clear
Clear
78°
Feels Like: 78°
Wind Chill: 78° Ceiling: Unl
Heat Index: 78° Visibility: 10mi
Dew Point: 46° Wind: 8mph
Humidity: 32% Direction: 180° (S)
Pressure: 29.96in Gusts: 0mph
Raw Report DataKSAC 300053Z AUTO 18007KT 150V210 10SM CLR 26/08 A2996 RMK AO2 SLP144 T02560078 TSNO
Traffic Incident Summary
Active as of:
Severity:
Category:
InformationThere was an issue retrieving the traffic information for this location. Please try a different location or try again shortly.
Advertisements
Track Severe Weather on mobile